This is the latest recevied weather packets stored in our database for station/object KC7KGF. If no packets are shown the sender has not sent any weather packets the latest 1 day(s).
| Time | Temp. | Humidity | Pressure | Rain* | Wind** | Luminosity | Snow |
|---|---|---|---|---|---|---|---|
| 1836274118 | 15° C | 89% | 1023.7 hPa | 0 mm | 0 m/s | - | - |
| 1778061930 | -1.11° C | 88% | 1018.3 hPa | 0 mm | 0 m/s | - | - |
| 1778060128 | -0.56° C | 87% | 1018.2 hPa | 0 mm | 0 m/s | - | - |
| 1778058335 | 0° C | 86% | 1018.3 hPa | 0 mm | 0 m/s | - | - |
| 1778056539 | 0.56° C | 85% | 1018.2 hPa | 0 mm | 0 m/s | - | - |
| 1778054743 | 1.11° C | 83% | 1018 hPa | 0 mm | 0 m/s | - | - |
| 1778052948 | 1.67° C | 81% | 1017.9 hPa | 0 mm | 0 m/s | - | - |
| 1778051130 | 2.22° C | 79% | 1018.1 hPa | 0 mm | 0 m/s | - | - |
| 1778049327 | 2.78° C | 78% | 1018 hPa | 0 mm | 0 m/s | - | - |
| 1778047532 | 3.33° C | 74% | 1017.6 hPa | 0 mm | 0 m/s | - | - |
| 1778045743 | 5° C | 69% | 1017.7 hPa | 0 mm | 0 m/s | - | - |
| 1778043929 | 6.67° C | 62% | 1017.5 hPa | 0 mm | 0 m/s | - | - |
| 1778042135 | 8.89° C | 53% | 1017.3 hPa | 0 mm | 0 m/s | - | - |
| 1778040341 | 9.44° C | 50% | 1017 hPa | 0 mm | 0.45 m/s, 253° | - | - |
| 1778038528 | 10° C | 48% | 1016.7 hPa | 0 mm | 0.45 m/s, 259° | - | - |
| 1778036736 | 10.56° C | 47% | 1016.2 hPa | 0 mm | 2.24 m/s, 217° | - | - |
| 1778034931 | 11.11° C | 45% | 1015.8 hPa | 0 mm | 3.13 m/s, 248° | - | - |
| 1778033138 | 11.67° C | 44% | 1015.2 hPa | 0 mm | 3.13 m/s, 237° | - | - |
| 1778031333 | 12.22° C | 42% | 1014.8 hPa | 0 mm | 4.92 m/s, 232° | - | - |
| 1778029543 | 13.33° C | 41% | 1014.5 hPa | 0 mm | 5.36 m/s, 229° | - | - |
| 1778027742 | 14.44° C | 39% | 1014.4 hPa | 0 mm | 4.92 m/s, 215° | - | - |
| 1778025930 | 14.44° C | 42% | 1014 hPa | 0 mm | 4.47 m/s, 242° | - | - |
| 1778024127 | 15° C | 41% | 1013.8 hPa | 0 mm | 4.47 m/s, 236° | - | - |
| 1778022336 | 14.44° C | 48% | 1013.8 hPa | 0 mm | 4.92 m/s, 248° | - | - |
| 1778020538 | 13.89° C | 54% | 1013.8 hPa | 0 mm | 4.02 m/s, 239° | - | - |
* Rain latest hour (hover to see other rain measurements)
** Current wind speed in m/s (hover to see current wind gust speed)